ZBAA/PEK METAR and TAF weather

Enter ICAO airport designator
Station Type Date Time Source
ZBAA METAR 2020/06/01 15:00 UTC NOAA

ZBAA 011500Z 36002MPS CAVOK 18/15 Q1003 NOSIG


Station Type Date Time Source
ZBAA Decoded METAR 2020/06/01 15:00 UTC NOAA

Beijing, China (ZBAA) 39-56N 116-17E 55M
Jun 01, 2020 - 11:00 AM EDT / 2020.06.01 1500 UTC
Wind: from the N (360 degrees) at 4 MPH (4 KT):0
Visibility: greater than 7 mile(s):0
Temperature: 64 F (18 C)
Dew Point: 59 F (15 C)
Relative Humidity: 82%
Pressure (altimeter): 29.62 in. Hg (1003 hPa)
ob: ZBAA 011500Z 36002MPS CAVOK 18/15 Q1003 NOSIG
cycle: 15

Station Type Date Time Source
ZBAA TAF 2020/06/01 12:03 UTC NOAA

TAF TAF ZBAA 010902Z 0112/0212 18004MPS CAVOK TX32/0207Z TN15/0121Z
TEMPO 0112/0116 -TSRA FEW040CB BKN040

Example: see airport list